Lexington Weather

Lexington, Massachusetts, USA

71°F
6/25/2019 3:52pm 
  • Lexington Conditions: Light rain, Mist, Overcast
  • Temperature: 71.1°F / 21.7°CWarmer 0.2°F than last hour.
  • Dew Point: 69.6°FIncreased 0.2°Fsince last hour.
  • Relative Humidity: 95
  • Wind: SSW Calm, 10-min avg: 1 mph, gust: 5 mph
  • Barometer: 29.82 in Steady
  • Visibility: 4 miles
  • Rain Today: 0.07 in
  •   

Nearby Reports - Official Weather Stations - Current Conditions

Data from the National Weather Service

KBED - Bedford, MA


Distance from station: WNW 4mi, 6km

Updated Tue Jun 25, 2019 2:56pm EDT

Light rain, Mist, Overcast

Light rain, Mist, Overcast

Wind from S

Wind:

S 8 mph, 13 km/h

Temperature: 73°F (23°C)

Dew Point: 70°F (21°C)

Humidity: 89%

Barometer: 29.87 in (1011.5 hPa)

Summary: Light rain, Mist

Clouds: Overcast

Visibility: 4 miles (6 km)

Cloud details: Mostly cloudy 900 ft
Overcast 2100 ft


2019/06/25 18:56 KBED 251856Z 17007KT 4SM -RA BR BKN009 OVC021 23/21 A2987 RMK AO2 SLP128 P0003 T02280206

KBOS - Boston, MA


Distance from station: ESE 12mi, 20km

Updated Tue Jun 25, 2019 3:33pm EDT

Overcast

Overcast

Wind from SSE

Wind:

SSE 10 mph, 17 km/h

Temperature: 72°F (22°C)

Dew Point: 68°F (20°C)

Humidity: 88%

Barometer: 29.89 in (1012.2 hPa)

Clouds: Overcast

Visibility: 10 miles (16 km)

Cloud details: Mostly cloudy 1300 ft
Mostly cloudy 2300 ft
Overcast 9500 ft


2019/06/25 19:33 KBOS 251933Z 16009KT 10SM BKN013 BKN023 OVC095 22/20 A2989 RMK AO2 RAE22 P0002 T02220200

KMQE - East Milton, MA


Distance from station: SSE 17mi, 27km

Updated Tue Jun 25, 2019 2:56pm EDT

Wind from S

Wind:

S 18 mph, 30 km/h,
Gust: 25 mph, 41 km/h

Temperature: 68°F (20°C)

Dew Point: 68°F (20°C)

Humidity: 100%

Barometer: 29.89 in (1012.2 hPa)


2019/06/25 18:56 KMQE 251856Z AUTO 17016G22KT 20/20 A2989 RMK AO1 SLP131 P0002 T02000200

KOWD - Norwood, MA


Distance from station: SSE 18mi, 29km

Updated Tue Jun 25, 2019 2:53pm EDT

Overcast

Overcast

Wind from S

Wind:

S 9 mph, 15 km/h

Temperature: 73°F (23°C)

Dew Point: 68°F (20°C)

Humidity: 83%

Barometer: 29.89 in (1012.2 hPa)

Clouds: Overcast

Visibility: 10 miles (16 km)

Cloud details: Few Clouds 800 ft
Mostly cloudy 1300 ft
Overcast 2700 ft


2019/06/25 18:53 KOWD 251853Z 17008KT 10SM FEW008 BKN013 OVC027 23/20 A2989 RMK AO2 RAE53 SLP120 P0002 T02330200

KBVY - Beverly, MA


Distance from station: ENE 19mi, 31km

Updated Tue Jun 25, 2019 3:18pm EDT

Light rain, Mist, Overcast

Light rain, Mist, Overcast

Wind from SSE

Wind:

SSE 12 mph, 19 km/h

Temperature: 70°F (21°C)

Dew Point: 66°F (19°C)

Humidity: 88%

Barometer: 29.89 in (1012.2 hPa)

Summary: Light rain, Mist

Clouds: Overcast

Visibility: 4 miles (6 km)

Cloud details: Few Clouds 400 ft
Mostly cloudy 1500 ft
Overcast 4100 ft


2019/06/25 19:18 KBVY 251918Z 16010KT 4SM -RA BR FEW004 BKN015 OVC041 21/19 A2989 RMK AO2 P0001 T02060194

KLWM - Lawrence, MA


Distance from station: NNE 20mi, 32km

Updated Tue Jun 25, 2019 2:54pm EDT

Light rain, Mist, Overcast

Light rain, Mist, Overcast

Wind from varies

Wind:

varies 6 mph, 9 km/h

Temperature: 70°F (21°C)

Dew Point: 66°F (19°C)

Humidity: 88%

Barometer: 29.90 in (1012.5 hPa)

Summary: Light rain, Mist

Clouds: Overcast

Visibility: 5 miles (8 km)

Cloud details: Mostly cloudy 700 ft
Mostly cloudy 2100 ft
Overcast 3400 ft


2019/06/25 18:54 KLWM 251854Z VRB05KT 5SM -RA BR BKN007 BKN021 OVC034 21/19 A2990 RMK AO2 CIG 005V011 SLP124 P0004 T02060194

KFIT - Fitchburg, MA


Distance from station: WNW 27mi, 44km

Updated Tue Jun 25, 2019 3:16pm EDT

Light rain, Mist, Overcast

Light rain, Mist, Overcast

Wind from calm

Wind:

Calm

Temperature: 66°F (19°C)

Dew Point: 64°F (18°C)

Humidity: 94%

Barometer: 29.88 in (1011.9 hPa)

Summary: Light rain, Mist

Clouds: Overcast

Visibility: 3 miles (5 km)

Cloud details: Overcast 500 ft


2019/06/25 19:16 KFIT 251916Z AUTO 00000KT 3SM -RA BR OVC005 19/18 A2988 RMK AO2 CIG 004V009 P0001 T01890178

KASH - Nashua/Boire Fld, NH


Distance from station: NNW 28mi, 44km

Updated Tue Jun 25, 2019 2:56pm EDT

Mist, Overcast

Mist, Overcast

Wind from ESE

Wind:

ESE 8 mph, 13 km/h

Temperature: 70°F (21°C)

Dew Point: 70°F (21°C)

Humidity: 100%

Barometer: 29.87 in (1011.5 hPa)

Summary: Mist

Clouds: Overcast

Visibility: 2 miles (3 km)

Cloud details: Overcast 500 ft


2019/06/25 18:56 KASH 251856Z 12007KT 2SM BR OVC005 21/21 A2987 RMK AO2 RAE56 SLP126 P0004 T02060206

KORH - Worcester, MA


Distance from station: WSW 34mi, 55km

Updated Tue Jun 25, 2019 3:40pm EDT

Overcast

Overcast

Wind from S

Wind:

S 10 mph, 17 km/h,
Gust: 25 mph, 41 km/h

Temperature: 68°F (20°C)

Dew Point: 66°F (19°C)

Humidity: 94%

Barometer: 29.88 in (1011.9 hPa)

Clouds: Overcast

Visibility: 10 miles (16 km)

Cloud details: Mostly cloudy 900 ft
Overcast 1400 ft


2019/06/25 19:40 KORH 251940Z 17009G22KT 10SM BKN009 OVC014 20/19 A2988 RMK AO2 RAB01E12 CIG 005V011 P0000 T02000194

KMHT - Manchester, NH


Distance from station: NNW 35mi, 57km

Updated Tue Jun 25, 2019 3:38pm EDT

Light rain, Mist, Overcast

Light rain, Mist, Overcast

Wind from SE

Wind:

SE 10 mph, 17 km/h

Temperature: 70°F (21°C)

Dew Point: 66°F (19°C)

Humidity: 88%

Barometer: 29.86 in (1011.2 hPa)

Summary: Light rain, Mist

Clouds: Overcast

Visibility: 2 miles (3 km)

Cloud details: Mostly cloudy 700 ft
Overcast 1300 ft


2019/06/25 19:38 KMHT 251938Z 13009KT 2SM -RA BR BKN007 OVC013 21/19 A2986 RMK AO2 RAE02B34 P0001 T02060194

KGHG - Marshfield, MA


Distance from station: SE 38mi, 60km

Updated Tue Jun 25, 2019 3:35pm EDT

Mist, Mostly cloudy

Mist, Mostly cloudy

Wind from S

Wind:

S 9 mph, 15 km/h

Temperature: 70°F (21°C)

Dew Point: 70°F (21°C)

Humidity: 100%

Barometer: 29.90 in (1012.5 hPa)

Summary: Mist

Clouds: Mostly cloudy

Visibility: 5 miles (8 km)

Cloud details: Few Clouds 1100 ft
Partly cloudy 2000 ft
Mostly cloudy 3100 ft


2019/06/25 19:35 KGHG 251935Z AUTO 17008KT 5SM BR FEW011 SCT020 BKN031 21/21 A2990 RMK AO2

KSFZ - Pawtucket, RI


Distance from station: SSW 39mi, 62km

Updated Tue Jun 25, 2019 3:35pm EDT

Overcast

Overcast

Wind from varies

Wind:

varies 7 mph, 11 km/h

Temperature: 70°F (21°C)

Dew Point: 68°F (20°C)

Humidity: 94%

Barometer: 29.89 in (1012.2 hPa)

Clouds: Overcast

Visibility: 10 miles (16 km)

Cloud details: Overcast 700 ft


2019/06/25 19:35 KSFZ 251935Z AUTO VRB06KT 10SM OVC007 21/20 A2989 RMK AO2 RAE22 CIG 004V011 P0000

KTAN - Taunton, MA


Distance from station: SSE 40mi, 65km

Updated Tue Jun 25, 2019 3:38pm EDT

Light rain, Overcast

Light rain, Overcast

Wind from S

Wind:

S 9 mph, 15 km/h

Temperature: 72°F (22°C)

Dew Point: 66°F (19°C)

Humidity: 83%

Barometer: 29.90 in (1012.5 hPa)

Summary: Light rain

Clouds: Overcast

Visibility: 10 miles (16 km)

Cloud details: Partly cloudy 900 ft
Mostly cloudy 1300 ft
Overcast 3700 ft


2019/06/25 19:38 KTAN 251938Z AUTO 17008KT 130V190 10SM -RA SCT009 BKN013 OVC037 22/19 A2990 RMK AO2 RAE15B28 P0001 T02220194

KPYM - Plymouth, MA


Distance from station: SE 44mi, 72km

Updated Tue Jun 25, 2019 2:59pm EDT

Light rain, Overcast

Light rain, Overcast

Wind from varies

Wind:

varies 7 mph, 11 km/h

Temperature: 68°F (20°C)

Dew Point: 64°F (18°C)

Humidity: 88%

Barometer: 29.92 in (1013.2 hPa)

Summary: Light rain

Clouds: Overcast

Visibility: 10 miles (16 km)

Cloud details: Mostly cloudy 2200 ft
Mostly cloudy 3900 ft
Overcast 5500 ft


2019/06/25 18:59 KPYM 251859Z AUTO VRB06KT 10SM -RA BKN022 BKN039 OVC055 20/18 A2992 RMK AO2 P0000 T02000183

KAFN - Jaffrey, NH


Distance from station: WNW 46mi, 74km

Updated Tue Jun 25, 2019 2:52pm EDT

Overcast

Overcast

Wind from varies

Wind:

varies 3 mph, 6 km/h

Temperature: 66°F (19°C)

Dew Point: 63°F (17°C)

Humidity: 88%

Barometer: 29.89 in (1012.2 hPa)

Clouds: Overcast

Visibility: 9 miles (14 km)

Cloud details: Overcast 700 ft


2019/06/25 18:52 KAFN 251852Z AUTO VRB03KT 9SM OVC007 19/17 A2989 RMK AO2 RAE03 CIG 005V010 SLP125 P0000 T01940172

KPSM - Portsmouth/Pease, NH


Distance from station: NNE 48mi, 78km

Updated Tue Jun 25, 2019 3:24pm EDT

Light rain, Mist, Overcast

Light rain, Mist, Overcast

Wind from ESE

Wind:

ESE 9 mph, 15 km/h

Temperature: 63°F (17°C)

Dew Point: 63°F (17°C)

Humidity: 100%

Barometer: 29.89 in (1012.2 hPa)

Summary: Light rain, Mist

Clouds: Overcast

Visibility: ¾ mile (1 km)

Cloud details: Overcast 200 ft


2019/06/25 19:24 KPSM 251924Z 11008KT 3/4SM R16/P6000FT -RA BR OVC002 17/17 A2989 RMK AO2A SLP124

KPVD - Providence/Green, RI


Distance from station: S 51mi, 82km

Updated Tue Jun 25, 2019 2:51pm EDT

Light rain, Mist, Overcast

Light rain, Mist, Overcast

Wind from S

Wind:

S 13 mph, 20 km/h

Temperature: 70°F (21°C)

Dew Point: 70°F (21°C)

Humidity: 100%

Barometer: 29.90 in (1012.5 hPa)

Summary: Light rain, Mist

Clouds: Overcast

Visibility: 6 miles (10 km)

Cloud details: Overcast 900 ft


2019/06/25 18:51 KPVD 251851Z 17011KT 6SM -RA BR OVC009 21/21 A2990 RMK AO2 SLP123 P0001 T02110206

KCON - Concord, NH


Distance from station: NNW 54mi, 87km

Updated Tue Jun 25, 2019 2:51pm EDT

Overcast

Overcast

Wind from ESE

Wind:

ESE 5 mph, 7 km/h

Temperature: 64°F (18°C)

Dew Point: 63°F (17°C)

Humidity: 94%

Barometer: 29.88 in (1011.9 hPa)

Clouds: Overcast

Visibility: 8 miles (13 km)

Cloud details: Overcast 900 ft


2019/06/25 18:51 KCON 251851Z AUTO 12004KT 8SM OVC009 18/17 A2988 RMK AO2 RAE03 SLP118 P0000 T01830172

KEWB - New Bedford, MA


Distance from station: SSE 54mi, 87km

Updated Tue Jun 25, 2019 3:09pm EDT

Light rain, Overcast

Light rain, Overcast

Wind from S

Wind:

S 10 mph, 17 km/h

Temperature: 68°F (20°C)

Dew Point: 64°F (18°C)

Humidity: 88%

Barometer: 29.91 in (1012.9 hPa)

Summary: Light rain

Clouds: Overcast

Visibility: 10 miles (16 km)

Cloud details: Partly cloudy 2000 ft
Mostly cloudy 3600 ft
Overcast 4500 ft


2019/06/25 19:09 KEWB 251909Z 18009KT 10SM -RA SCT020 BKN036 OVC045 20/18 A2991 RMK AO2 P0000 T02000183

KMWN - Mount Washington, NH


Distance from station: N 126mi, 203km

Updated Tue Jun 25, 2019 2:48pm EDT

Light rain showers, Fog, Overcast

Light rain showers, Fog, Overcast

Wind from S

Wind:

S 31 mph, 50 km/h,
Gust: 46 mph, 74 km/h

Temperature: 50°F (10°C)

Wind Chill: 42°F (6°C)

Dew Point: 50°F (10°C)

Humidity: 100%

Summary: Light rain showers, Fog

Clouds: Overcast

Visibility: 0 miles (0 km)

Cloud details: Overcast 0 ft


2019/06/25 18:48 KMWN 251848Z 18027G40KT 0SM -SHRA FG VV000 10/10 RMK RAE10SHRAB10